CheckWX is a tool to help pilots better visualize weather data.  It is not intended as a substitute for an official pre-flight weather briefing.

20:26:03 UTC

KCDH METAR
Harrell Field Airport
Camden, Arkansas, USA
Current

11 mins ago

KCDH 202015Z AUTO VRB06G14KT 10SM CLR 23/01 A2999 RMK AO2
Observed
Apr-20 @ 20:15 UTC
Wind
  • Variable at 6 KTS
  • Gusting to 14 KTS
Visibility
10 SM
Flight Rules
VFR
Cloud Levels
  • Clear skies
Temperature
23°C / 73°F
Dewpoint
C / 34°F
Humidity
23%
Altimeter
29.99" Hg
Pressure
1015.62 hPa
Previous

31 mins ago

KCDH 201955Z AUTO 30007KT 250V320 10SM CLR 23/01 A3000 RMK AO2
Observed
Apr-20 @ 19:55 UTC
Wind
  • 300° at 7 KTS
Visibility
10 SM
Flight Rules
VFR
Cloud Levels
  • Clear skies
Temperature
23°C / 73°F
Dewpoint
C / 34°F
Humidity
23%
Altimeter
30" Hg
Pressure
1015.92 hPa
Previous

51 mins ago

KCDH 201935Z AUTO 30006G11KT 10SM CLR 23/00 A3000 RMK AO2
Observed
Apr-20 @ 19:35 UTC
Wind
  • 300° at 6 KTS
  • Gusting to 11 KTS
Visibility
10 SM
Flight Rules
VFR
Cloud Levels
  • Clear skies
Temperature
23°C / 73°F
Dewpoint
C / 32°F
Humidity
22%
Altimeter
30" Hg
Pressure
1015.92 hPa